sensor_id;sensor_type;location;lat;lon;timestamp;pressure;altitude;pressure_sealevel;temperature;humidity
61119;BME280;51448;51.660;5.824;2023-05-07T00:00:38;101517.53;;;14.82;100.00
61119;BME280;51448;51.660;5.824;2023-05-07T00:03:05;101522.09;;;14.79;100.00
61119;BME280;51448;51.660;5.824;2023-05-07T00:05:34;101523.94;;;14.77;100.00
61119;BME280;51448;51.660;5.824;2023-05-07T00:08:02;101519.59;;;14.74;100.00
61119;BME280;51448;51.660;5.824;2023-05-07T00:10:30;101528.47;;;14.73;100.00
61119;BME280;51448;51.660;5.824;2023-05-07T00:12:58;101523.22;;;14.72;100.00
61119;BME280;51448;51.660;5.824;2023-05-07T00:15:26;101528.56;;;14.70;100.00
61119;BME280;51448;51.660;5.824;2023-05-07T00:17:55;101528.56;;;14.70;100.00
61119;BME280;51448;51.660;5.824;2023-05-07T00:20:23;101535.69;;;14.68;100.00
61119;BME280;51448;51.660;5.824;2023-05-07T00:22:51;101524.28;;;14.66;100.00
61119;BME280;51448;51.660;5.824;2023-05-07T00:25:18;101518.19;;;14.64;100.00
61119;BME280;51448;51.660;5.824;2023-05-07T00:27:47;101515.53;;;14.64;100.00
61119;BME280;51448;51.660;5.824;2023-05-07T00:30:14;101516.47;;;14.63;100.00
61119;BME280;51448;51.660;5.824;2023-05-07T00:32:42;101515.53;;;14.64;100.00
61119;BME280;51448;51.660;5.824;2023-05-07T00:35:12;101513.00;;;14.61;100.00
61119;BME280;51448;51.660;5.824;2023-05-07T00:37:40;101506.84;;;14.60;100.00
61119;BME280;51448;51.660;5.824;2023-05-07T00:40:08;101509.50;;;14.60;100.00
61119;BME280;51448;51.660;5.824;2023-05-07T00:42:36;101498.94;;;14.59;100.00
61119;BME280;51448;51.660;5.824;2023-05-07T00:45:05;101496.34;;;14.57;100.00
61119;BME280;51448;51.660;5.824;2023-05-07T00:47:35;101503.44;;;14.57;100.00
61119;BME280;51448;51.660;5.824;2023-05-07T00:50:03;101498.16;;;14.55;100.00
61119;BME280;51448;51.660;5.824;2023-05-07T00:52:32;101492.00;;;14.55;100.00
61119;BME280;51448;51.660;5.824;2023-05-07T00:55:05;101502.59;;;14.55;100.00
61119;BME280;51448;51.660;5.824;2023-05-07T00:57:39;101488.50;;;14.54;100.00
61119;BME280;51448;51.660;5.824;2023-05-07T01:00:09;101495.56;;;14.54;100.00
61119;BME280;51448;51.660;5.824;2023-05-07T01:02:38;101497.38;;;14.52;100.00
61119;BME280;51448;51.660;5.824;2023-05-07T01:05:17;101493.84;;;14.53;100.00
61119;BME280;51448;51.660;5.824;2023-05-07T01:07:48;101501.78;;;14.53;100.00
61119;BME280;51448;51.660;5.824;2023-05-07T01:10:17;101496.53;;;14.51;100.00
61119;BME280;51448;51.660;5.824;2023-05-07T01:12:46;101487.72;;;14.51;100.00
61119;BME280;51448;51.660;5.824;2023-05-07T01:15:17;101492.09;;;14.52;100.00
61119;BME280;51448;51.660;5.824;2023-05-07T01:17:45;101485.97;;;14.49;100.00
61119;BME280;51448;51.660;5.824;2023-05-07T01:20:21;101491.34;;;14.48;100.00
61119;BME280;51448;51.660;5.824;2023-05-07T01:22:52;101490.47;;;14.47;100.00
61119;BME280;51448;51.660;5.824;2023-05-07T01:25:20;101486.97;;;14.47;100.00
61119;BME280;51448;51.660;5.824;2023-05-07T01:27:52;101488.03;;;14.41;100.00
61119;BME280;51448;51.660;5.824;2023-05-07T01:30:22;101492.50;;;14.39;100.00
61119;BME280;51448;51.660;5.824;2023-05-07T01:32:57;101485.47;;;14.40;100.00
61119;BME280;51448;51.660;5.824;2023-05-07T01:35:34;101491.69;;;14.37;100.00
61119;BME280;51448;51.660;5.824;2023-05-07T01:38:06;101489.97;;;14.36;100.00
61119;BME280;51448;51.660;5.824;2023-05-07T01:40:35;101493.44;;;14.38;100.00
61119;BME280;51448;51.660;5.824;2023-05-07T01:43:04;101491.59;;;14.40;100.00
61119;BME280;51448;51.660;5.824;2023-05-07T01:45:34;101490.66;;;14.41;100.00
61119;BME280;51448;51.660;5.824;2023-05-07T01:48:03;101492.41;;;14.42;100.00
61119;BME280;51448;51.660;5.824;2023-05-07T01:50:32;101487.94;;;14.44;100.00
61119;BME280;51448;51.660;5.824;2023-05-07T01:53:01;101486.09;;;14.46;100.00
61119;BME280;51448;51.660;5.824;2023-05-07T01:55:29;101480.81;;;14.46;100.00
61119;BME280;51448;51.660;5.824;2023-05-07T01:57:58;101473.78;;;14.45;100.00
61119;BME280;51448;51.660;5.824;2023-05-07T02:00:26;101465.94;;;14.42;100.00
61119;BME280;51448;51.660;5.824;2023-05-07T02:02:54;101469.56;;;14.40;100.00
61119;BME280;51448;51.660;5.824;2023-05-07T02:05:37;101464.38;;;14.37;100.00
61119;BME280;51448;51.660;5.824;2023-05-07T02:08:12;101473.16;;;14.37;100.00
61119;BME280;51448;51.660;5.824;2023-05-07T02:10:39;101473.16;;;14.37;100.00
61119;BME280;51448;51.660;5.824;2023-05-07T02:13:07;101461.69;;;14.38;100.00
61119;BME280;51448;51.660;5.824;2023-05-07T02:15:35;101462.59;;;14.37;100.00
61119;BME280;51448;51.660;5.824;2023-05-07T02:18:06;101468.69;;;14.39;100.00
61119;BME280;51448;51.660;5.824;2023-05-07T02:20:36;101471.34;;;14.39;100.00
61119;BME280;51448;51.660;5.824;2023-05-07T02:23:04;101469.50;;;14.41;100.00
61119;BME280;51448;51.660;5.824;2023-05-07T02:25:32;101469.47;;;14.43;100.00
61119;BME280;51448;51.660;5.824;2023-05-07T02:27:59;101461.47;;;14.44;100.00
61119;BME280;51448;51.660;5.824;2023-05-07T02:30:42;101465.03;;;14.43;100.00
61119;BME280;51448;51.660;5.824;2023-05-07T02:33:09;101462.38;;;14.43;100.00
61119;BME280;51448;51.660;5.824;2023-05-07T02:35:40;101461.56;;;14.41;100.00
61119;BME280;51448;51.660;5.824;2023-05-07T02:38:10;101464.22;;;14.41;100.00
61119;BME280;51448;51.660;5.824;2023-05-07T02:40:39;101458.09;;;14.39;100.00
61119;BME280;51448;51.660;5.824;2023-05-07T02:43:07;101462.59;;;14.37;100.00
61119;BME280;51448;51.660;5.824;2023-05-07T02:45:35;101467.03;;;14.37;100.00
61119;BME280;51448;51.660;5.824;2023-05-07T02:48:06;101469.63;;;14.38;100.00
61119;BME280;51448;51.660;5.824;2023-05-07T02:50:34;101465.19;;;14.39;100.00
61119;BME280;51448;51.660;5.824;2023-05-07T02:53:01;101466.03;;;14.39;100.00
61119;BME280;51448;51.660;5.824;2023-05-07T02:55:30;101467.88;;;14.37;100.00
61119;BME280;51448;51.660;5.824;2023-05-07T02:57:57;101465.19;;;14.39;100.00
61119;BME280;51448;51.660;5.824;2023-05-07T03:00:26;101465.22;;;14.37;100.00
61119;BME280;51448;51.660;5.824;2023-05-07T03:03:23;101474.91;;;14.38;100.00
61119;BME280;51448;51.660;5.824;2023-05-07T03:05:51;101473.97;;;14.39;100.00
61119;BME280;51448;51.660;5.824;2023-05-07T03:08:18;101474.88;;;14.40;100.00
61119;BME280;51448;51.660;5.824;2023-05-07T03:10:46;101469.56;;;14.40;100.00
61119;BME280;51448;51.660;5.824;2023-05-07T03:13:14;101467.78;;;14.40;100.00
61119;BME280;51448;51.660;5.824;2023-05-07T03:15:42;101466.84;;;14.41;100.00
61119;BME280;51448;51.660;5.824;2023-05-07T03:18:10;101467.78;;;14.40;100.00
61119;BME280;51448;51.660;5.824;2023-05-07T03:20:38;101468.69;;;14.39;100.00
61119;BME280;51448;51.660;5.824;2023-05-07T03:23:06;101472.22;;;14.40;100.00
61119;BME280;51448;51.660;5.824;2023-05-07T03:25:34;101462.59;;;14.37;100.00
61119;BME280;51448;51.660;5.824;2023-05-07T03:28:01;101462.69;;;14.34;100.00
61119;BME280;51448;51.660;5.824;2023-05-07T03:30:38;101461.94;;;14.31;100.00
61119;BME280;51448;51.660;5.824;2023-05-07T03:33:06;101460.25;;;14.28;100.00
61119;BME280;51448;51.660;5.824;2023-05-07T03:35:34;101471.00;;;14.23;100.00
61119;BME280;51448;51.660;5.824;2023-05-07T03:38:01;101478.06;;;14.23;100.00
61119;BME280;51448;51.660;5.824;2023-05-07T03:40:32;101475.38;;;14.24;100.00
61119;BME280;51448;51.660;5.824;2023-05-07T03:43:01;101470.94;;;14.25;100.00
61119;BME280;51448;51.660;5.824;2023-05-07T03:45:31;101476.19;;;14.26;100.00
61119;BME280;51448;51.660;5.824;2023-05-07T03:48:09;101470.84;;;14.28;100.00
61119;BME280;51448;51.660;5.824;2023-05-07T03:50:37;101477.00;;;14.28;100.00
61119;BME280;51448;51.660;5.824;2023-05-07T03:53:05;101470.72;;;14.31;100.00
61119;BME280;51448;51.660;5.824;2023-05-07T03:55:37;101468.97;;;14.32;100.00
61119;BME280;51448;51.660;5.824;2023-05-07T03:58:05;101468.97;;;14.32;100.00
61119;BME280;51448;51.660;5.824;2023-05-07T04:00:32;101473.38;;;14.31;100.00
61119;BME280;51448;51.660;5.824;2023-05-07T04:03:14;101470.84;;;14.28;100.00
61119;BME280;51448;51.660;5.824;2023-05-07T04:05:42;101472.63;;;14.27;100.00
61119;BME280;51448;51.660;5.824;2023-05-07T04:08:10;101469.19;;;14.25;100.00
61119;BME280;51448;51.660;5.824;2023-05-07T04:10:45;101476.34;;;14.22;100.00
61119;BME280;51448;51.660;5.824;2023-05-07T04:13:13;101474.66;;;14.19;100.00
61119;BME280;51448;51.660;5.824;2023-05-07T04:15:42;101486.19;;;14.17;100.00
61119;BME280;51448;51.660;5.824;2023-05-07T04:18:12;101479.19;;;14.16;100.00
61119;BME280;51448;51.660;5.824;2023-05-07T04:20:43;101485.38;;;14.15;100.00
61119;BME280;51448;51.660;5.824;2023-05-07T04:23:14;101481.91;;;14.13;100.00
61119;BME280;51448;51.660;5.824;2023-05-07T04:25:41;101489.84;;;14.13;100.00
61119;BME280;51448;51.660;5.824;2023-05-07T04:28:23;101487.28;;;14.11;100.00
61119;BME280;51448;51.660;5.824;2023-05-07T04:30:51;101489.94;;;14.11;100.00
61119;BME280;51448;51.660;5.824;2023-05-07T04:33:20;101488.09;;;14.13;100.00
61119;BME280;51448;51.660;5.824;2023-05-07T04:35:50;101488.03;;;14.15;100.00
61119;BME280;51448;51.660;5.824;2023-05-07T04:38:18;101495.06;;;14.16;100.00
61119;BME280;51448;51.660;5.824;2023-05-07T04:40:48;101497.59;;;14.19;100.00
61119;BME280;51448;51.660;5.824;2023-05-07T04:43:21;101493.19;;;14.19;100.00
61119;BME280;51448;51.660;5.824;2023-05-07T04:45:51;101486.09;;;14.20;100.00
61119;BME280;51448;51.660;5.824;2023-05-07T04:48:21;101488.75;;;14.20;100.00
61119;BME280;51448;51.660;5.824;2023-05-07T04:50:51;101487.81;;;14.21;100.00
61119;BME280;51448;51.660;5.824;2023-05-07T04:53:20;101493.03;;;14.24;100.00
61119;BME280;51448;51.660;5.824;2023-05-07T04:55:55;101490.25;;;14.27;100.00
61119;BME280;51448;51.660;5.824;2023-05-07T04:58:25;101491.16;;;14.27;100.00
61119;BME280;51448;51.660;5.824;2023-05-07T05:00:53;101491.16;;;14.27;100.00
61119;BME280;51448;51.660;5.824;2023-05-07T05:03:23;101499.09;;;14.27;100.00
61119;BME280;51448;51.660;5.824;2023-05-07T05:05:52;101494.53;;;14.31;100.00
61119;BME280;51448;51.660;5.824;2023-05-07T05:08:21;101492.72;;;14.33;100.00
61119;BME280;51448;51.660;5.824;2023-05-07T05:10:49;101493.47;;;14.37;100.00
61119;BME280;51448;51.660;5.824;2023-05-07T05:13:17;101496.09;;;14.38;100.00
61119;BME280;51448;51.660;5.824;2023-05-07T05:15:46;101495.09;;;14.41;100.00
61119;BME280;51448;51.660;5.824;2023-05-07T05:18:14;101500.34;;;14.42;100.00
61119;BME280;51448;51.660;5.824;2023-05-07T05:20:41;101496.78;;;14.43;100.00
61119;BME280;51448;51.660;5.824;2023-05-07T05:23:09;101507.44;;;14.42;100.00
61119;BME280;51448;51.660;5.824;2023-05-07T05:25:37;101502.19;;;14.40;100.00
61119;BME280;51448;51.660;5.824;2023-05-07T05:28:08;101501.34;;;14.40;100.00
61119;BME280;51448;51.660;5.824;2023-05-07T05:30:36;101511.81;;;14.43;100.00
61119;BME280;51448;51.660;5.824;2023-05-07T05:33:04;101507.31;;;14.45;100.00
61119;BME280;51448;51.660;5.824;2023-05-07T05:35:32;101512.53;;;14.48;100.00
61119;BME280;51448;51.660;5.824;2023-05-07T05:38:03;101518.69;;;14.48;100.00
61119;BME280;51448;51.660;5.824;2023-05-07T05:40:31;101521.13;;;14.56;100.00
61119;BME280;51448;51.660;5.824;2023-05-07T05:42:59;101522.63;;;14.63;100.00
61119;BME280;51448;51.660;5.824;2023-05-07T05:45:27;101530.31;;;14.71;100.00
61119;BME280;51448;51.660;5.824;2023-05-07T05:47:56;101537.09;;;14.78;100.00
61119;BME280;51448;51.660;5.824;2023-05-07T05:50:25;101532.47;;;14.85;100.00
61119;BME280;51448;51.660;5.824;2023-05-07T05:52:54;101535.81;;;14.90;100.00
61119;BME280;51448;51.660;5.824;2023-05-07T05:55:22;101537.41;;;14.96;100.00
61119;BME280;51448;51.660;5.824;2023-05-07T05:57:50;101538.09;;;15.01;100.00
61119;BME280;51448;51.660;5.824;2023-05-07T06:00:19;101531.72;;;15.06;100.00
61119;BME280;51448;51.660;5.824;2023-05-07T06:02:57;101533.50;;;15.06;100.00
61119;BME280;51448;51.660;5.824;2023-05-07T06:05:26;101531.75;;;15.05;100.00
61119;BME280;51448;51.660;5.824;2023-05-07T06:07:56;101527.34;;;15.05;100.00
61119;BME280;51448;51.660;5.824;2023-05-07T06:10:24;101540.59;;;15.05;100.00
61119;BME280;51448;51.660;5.824;2023-05-07T06:12:53;101531.72;;;15.06;100.00
61119;BME280;51448;51.660;5.824;2023-05-07T06:15:21;101536.09;;;15.07;100.00
61119;BME280;51448;51.660;5.824;2023-05-07T06:17:48;101536.84;;;15.11;100.00
61119;BME280;51448;51.660;5.824;2023-05-07T06:20:17;101536.69;;;15.16;100.00
61119;BME280;51448;51.660;5.824;2023-05-07T06:22:45;101528.63;;;15.19;100.00
61119;BME280;51448;51.660;5.824;2023-05-07T06:25:14;101533.88;;;15.20;100.00
61119;BME280;51448;51.660;5.824;2023-05-07T06:27:43;101534.72;;;15.21;100.00
61119;BME280;51448;51.660;5.824;2023-05-07T06:30:11;101528.53;;;15.22;100.00
61119;BME280;51448;51.660;5.824;2023-05-07T06:32:40;101531.06;;;15.25;100.00
61119;BME280;51448;51.660;5.824;2023-05-07T06:35:09;101536.25;;;15.28;100.00
61119;BME280;51448;51.660;5.824;2023-05-07T06:37:38;101539.63;;;15.32;100.00
61119;BME280;51448;51.660;5.824;2023-05-07T06:40:08;101534.06;;;15.39;100.00
61119;BME280;51448;51.660;5.824;2023-05-07T06:42:39;101540.13;;;15.43;100.00
61119;BME280;51448;51.660;5.824;2023-05-07T06:45:35;101530.31;;;15.45;100.00
61119;BME280;51448;51.660;5.824;2023-05-07T06:48:05;101550.50;;;15.49;100.00
61119;BME280;51448;51.660;5.824;2023-05-07T06:50:42;101539.66;;;15.55;100.00
61119;BME280;51448;51.660;5.824;2023-05-07T06:53:11;101556.00;;;15.66;100.00
61119;BME280;51448;51.660;5.824;2023-05-07T06:55:38;101554.78;;;15.77;100.00
61119;BME280;51448;51.660;5.824;2023-05-07T06:58:09;101562.38;;;15.86;100.00
61119;BME280;51448;51.660;5.824;2023-05-07T07:00:37;101557.75;;;15.91;100.00
61119;BME280;51448;51.660;5.824;2023-05-07T07:03:05;101552.22;;;15.97;100.00
61119;BME280;51448;51.660;5.824;2023-05-07T07:05:33;101560.00;;;16.02;100.00
61119;BME280;51448;51.660;5.824;2023-05-07T07:08:03;101559.94;;;16.03;100.00
61119;BME280;51448;51.660;5.824;2023-05-07T07:10:31;101554.75;;;16.00;100.00
61119;BME280;51448;51.660;5.824;2023-05-07T07:13:00;101549.31;;;16.03;100.00
61119;BME280;51448;51.660;5.824;2023-05-07T07:15:28;101559.88;;;16.05;100.00
61119;BME280;51448;51.660;5.824;2023-05-07T07:17:56;101558.03;;;16.07;100.00
61119;BME280;51448;51.660;5.824;2023-05-07T07:20:25;101556.19;;;16.09;100.00
61119;BME280;51448;51.660;5.824;2023-05-07T07:22:53;101572.03;;;16.11;100.00
61119;BME280;51448;51.660;5.824;2023-05-07T07:25:21;101553.34;;;16.14;100.00
61119;BME280;51448;51.660;5.824;2023-05-07T07:27:50;101558.41;;;16.20;100.00
61119;BME280;51448;51.660;5.824;2023-05-07T07:30:18;101555.50;;;16.26;100.00
61119;BME280;51448;51.660;5.824;2023-05-07T07:32:49;101553.66;;;16.28;100.00
61119;BME280;51448;51.660;5.824;2023-05-07T07:35:17;101556.19;;;16.31;100.00
61119;BME280;51448;51.660;5.824;2023-05-07T07:37:45;101556.00;;;16.36;100.00
61119;BME280;51448;51.660;5.824;2023-05-07T07:40:14;101561.25;;;16.37;100.00
61119;BME280;51448;51.660;5.824;2023-05-07T07:42:42;101567.22;;;16.42;100.00
61119;BME280;51448;51.660;5.824;2023-05-07T07:45:11;101567.09;;;16.45;100.00
61119;BME280;51448;51.660;5.824;2023-05-07T07:47:44;101560.75;;;16.49;100.00
61119;BME280;51448;51.660;5.824;2023-05-07T07:50:12;101566.81;;;16.53;100.00
61119;BME280;51448;51.660;5.824;2023-05-07T07:52:51;101571.13;;;16.56;100.00
61119;BME280;51448;51.660;5.824;2023-05-07T07:55:20;101572.72;;;16.60;100.00
61119;BME280;51448;51.660;5.824;2023-05-07T07:57:52;101570.72;;;16.65;100.00
61119;BME280;51448;51.660;5.824;2023-05-07T08:00:20;101572.25;;;16.70;100.00
61119;BME280;51448;51.660;5.824;2023-05-07T08:02:52;101573.81;;;16.76;100.00
61119;BME280;51448;51.660;5.824;2023-05-07T08:05:26;101570.91;;;16.82;100.00
61119;BME280;51448;51.660;5.824;2023-05-07T08:07:54;101569.84;;;16.86;100.00
61119;BME280;51448;51.660;5.824;2023-05-07T08:10:27;101572.31;;;16.91;100.00
61119;BME280;51448;51.660;5.824;2023-05-07T08:13:01;101572.09;;;16.96;100.00
61119;BME280;51448;51.660;5.824;2023-05-07T08:15:31;101571.84;;;17.02;100.00
61119;BME280;51448;51.660;5.824;2023-05-07T08:18:01;101572.09;;;17.16;100.00
61119;BME280;51448;51.660;5.824;2023-05-07T08:20:30;101572.34;;;17.30;100.00
61119;BME280;51448;51.660;5.824;2023-05-07T08:22:58;101579.66;;;17.46;100.00
61119;BME280;51448;51.660;5.824;2023-05-07T08:25:28;101576.38;;;17.60;100.00
61119;BME280;51448;51.660;5.824;2023-05-07T08:27:56;101582.13;;;17.69;100.00
61119;BME280;51448;51.660;5.824;2023-05-07T08:30:24;101570.22;;;17.78;100.00
61119;BME280;51448;51.660;5.824;2023-05-07T08:32:55;101590.81;;;17.94;100.00
61119;BME280;51448;51.660;5.824;2023-05-07T08:35:23;101584.84;;;18.07;100.00
61119;BME280;51448;51.660;5.824;2023-05-07T08:37:51;101585.28;;;18.17;100.00
61119;BME280;51448;51.660;5.824;2023-05-07T08:40:21;101593.03;;;18.22;100.00
61119;BME280;51448;51.660;5.824;2023-05-07T08:42:55;101586.03;;;18.38;100.00
61119;BME280;51448;51.660;5.824;2023-05-07T08:45:26;101579.59;;;18.42;100.00
61119;BME280;51448;51.660;5.824;2023-05-07T08:47:58;101581.00;;;18.49;100.00
61119;BME280;51448;51.660;5.824;2023-05-07T08:50:35;101579.63;;;18.60;100.00
61119;BME280;51448;51.660;5.824;2023-05-07T08:53:05;101592.50;;;18.69;99.52
61119;BME280;51448;51.660;5.824;2023-05-07T08:55:40;101587.38;;;18.83;98.98
61119;BME280;51448;51.660;5.824;2023-05-07T08:58:08;101586.72;;;18.96;99.48
61119;BME280;51448;51.660;5.824;2023-05-07T09:00:39;101590.09;;;19.17;99.34
61119;BME280;51448;51.660;5.824;2023-05-07T09:03:09;101594.19;;;19.40;97.96
61119;BME280;51448;51.660;5.824;2023-05-07T09:05:45;101586.09;;;19.59;97.82
61119;BME280;51448;51.660;5.824;2023-05-07T09:08:15;101587.53;;;19.82;96.71
61119;BME280;51448;51.660;5.824;2023-05-07T09:10:48;101586.78;;;19.96;95.02
61119;BME280;51448;51.660;5.824;2023-05-07T09:13:17;101600.38;;;20.07;94.59
61119;BME280;51448;51.660;5.824;2023-05-07T09:15:52;101598.75;;;20.20;93.84
61119;BME280;51448;51.660;5.824;2023-05-07T09:18:29;101595.47;;;20.31;93.68
61119;BME280;51448;51.660;5.824;2023-05-07T09:20:57;101595.53;;;20.45;93.97
61119;BME280;51448;51.660;5.824;2023-05-07T09:23:28;101592.00;;;20.61;91.74
61119;BME280;51448;51.660;5.824;2023-05-07T09:26:03;101586.97;;;20.70;91.47
61119;BME280;51448;51.660;5.824;2023-05-07T09:28:51;101584.34;;;20.85;91.59
61119;BME280;51448;51.660;5.824;2023-05-07T09:31:20;101583.94;;;21.07;90.99
61119;BME280;51448;51.660;5.824;2023-05-07T09:33:52;101589.78;;;21.14;89.91
61119;BME280;51448;51.660;5.824;2023-05-07T09:36:20;101592.53;;;21.12;90.15
61119;BME280;51448;51.660;5.824;2023-05-07T09:38:48;101589.84;;;21.12;89.46
61119;BME280;51448;51.660;5.824;2023-05-07T09:41:19;101591.59;;;21.13;88.74
61119;BME280;51448;51.660;5.824;2023-05-07T09:43:57;101583.50;;;21.15;88.07
61119;BME280;51448;51.660;5.824;2023-05-07T09:46:31;101585.09;;;21.17;88.72
61119;BME280;51448;51.660;5.824;2023-05-07T09:49:11;101590.09;;;21.23;88.90
61119;BME280;51448;51.660;5.824;2023-05-07T09:51:49;101595.91;;;21.30;87.89
61119;BME280;51448;51.660;5.824;2023-05-07T09:54:22;101585.50;;;21.25;87.07
61119;BME280;51448;51.660;5.824;2023-05-07T09:56:53;101584.91;;;21.20;86.83
61119;BME280;51448;51.660;5.824;2023-05-07T09:59:25;101587.69;;;21.19;86.25
61119;BME280;51448;51.660;5.824;2023-05-07T10:01:59;101591.00;;;21.08;85.54
61119;BME280;51448;51.660;5.824;2023-05-07T10:04:35;101590.59;;;21.00;86.38
61119;BME280;51448;51.660;5.824;2023-05-07T10:07:04;101586.59;;;20.93;85.84
61119;BME280;51448;51.660;5.824;2023-05-07T10:09:34;101588.50;;;20.90;86.54
61119;BME280;51448;51.660;5.824;2023-05-07T10:12:09;101588.66;;;20.87;85.71
61119;BME280;51448;51.660;5.824;2023-05-07T10:14:37;101586.63;;;20.77;85.74
61119;BME280;51448;51.660;5.824;2023-05-07T10:17:09;101587.69;;;20.74;86.34
61119;BME280;51448;51.660;5.824;2023-05-07T10:19:44;101595.00;;;20.70;85.63
61119;BME280;51448;51.660;5.824;2023-05-07T10:22:13;101592.69;;;20.64;85.87
61119;BME280;51448;51.660;5.824;2023-05-07T10:24:48;101585.63;;;20.63;86.43
61119;BME280;51448;51.660;5.824;2023-05-07T10:27:21;101583.63;;;20.67;85.79
61119;BME280;51448;51.660;5.824;2023-05-07T10:32:45;101578.53;;;20.78;85.76
61119;BME280;51448;51.660;5.824;2023-05-07T10:35:26;101581.59;;;20.86;86.51
61119;BME280;51448;51.660;5.824;2023-05-07T10:37:59;101585.25;;;21.00;86.07
61119;BME280;51448;51.660;5.824;2023-05-07T10:40:31;101581.19;;;21.08;84.84
61119;BME280;51448;51.660;5.824;2023-05-07T10:43:04;101586.16;;;21.15;84.62
61119;BME280;51448;51.660;5.824;2023-05-07T10:46:18;101590.00;;;21.25;83.32
61119;BME280;51448;51.660;5.824;2023-05-07T10:52:23;101598.63;;;21.44;83.59
61119;BME280;51448;51.660;5.824;2023-05-07T10:55:20;101596.63;;;21.62;83.17
61119;BME280;51448;51.660;5.824;2023-05-07T11:01:08;101590.22;;;21.79;80.65
61119;BME280;51448;51.660;5.824;2023-05-07T11:04:12;101582.84;;;21.83;80.75
61119;BME280;51448;51.660;5.824;2023-05-07T11:15:13;101587.22;;;21.98;79.04
61119;BME280;51448;51.660;5.824;2023-05-07T11:20:45;101567.69;;;21.96;78.67
61119;BME280;51448;51.660;5.824;2023-05-07T11:26:47;101580.59;;;22.04;78.44
61119;BME280;51448;51.660;5.824;2023-05-07T11:29:21;101574.94;;;22.08;78.69
61119;BME280;51448;51.660;5.824;2023-05-07T11:31:55;101580.22;;;22.10;76.19
61119;BME280;51448;51.660;5.824;2023-05-07T11:34:27;101587.31;;;22.11;74.70
61119;BME280;51448;51.660;5.824;2023-05-07T11:36:58;101583.34;;;22.17;75.27
61119;BME280;51448;51.660;5.824;2023-05-07T11:39:49;101576.66;;;22.24;74.25
61119;BME280;51448;51.660;5.824;2023-05-07T11:42:28;101584.63;;;22.25;73.61
61119;BME280;51448;51.660;5.824;2023-05-07T11:45:00;101580.56;;;22.33;75.43
61119;BME280;51448;51.660;5.824;2023-05-07T11:47:32;101590.28;;;22.48;72.78
61119;BME280;51448;51.660;5.824;2023-05-07T11:50:08;101585.44;;;22.53;73.69
61119;BME280;51448;51.660;5.824;2023-05-07T11:52:37;101585.81;;;22.61;73.96
61119;BME280;51448;51.660;5.824;2023-05-07T11:55:06;101587.97;;;22.69;73.43
61119;BME280;51448;51.660;5.824;2023-05-07T11:57:35;101587.56;;;22.75;73.30
61119;BME280;51448;51.660;5.824;2023-05-07T12:00:03;101594.34;;;22.81;72.39
61119;BME280;51448;51.660;5.824;2023-05-07T12:02:42;101587.81;;;22.85;71.83
61119;BME280;51448;51.660;5.824;2023-05-07T12:05:10;101590.34;;;22.86;71.49
61119;BME280;51448;51.660;5.824;2023-05-07T12:07:39;101585.75;;;22.88;70.90
61119;BME280;51448;51.660;5.824;2023-05-07T12:10:07;101586.91;;;22.84;69.29
61119;BME280;51448;51.660;5.824;2023-05-07T12:12:39;101590.69;;;22.82;70.37
61119;BME280;51448;51.660;5.824;2023-05-07T12:15:16;101589.72;;;22.83;70.60
61119;BME280;51448;51.660;5.824;2023-05-07T12:17:46;101591.25;;;22.87;70.44
61119;BME280;51448;51.660;5.824;2023-05-07T12:20:13;101592.75;;;22.91;70.39
61119;BME280;51448;51.660;5.824;2023-05-07T12:22:42;101595.44;;;22.91;69.19
61119;BME280;51448;51.660;5.824;2023-05-07T12:25:10;101597.22;;;22.90;70.79
61119;BME280;51448;51.660;5.824;2023-05-07T12:27:40;101598.97;;;22.92;70.42
61119;BME280;51448;51.660;5.824;2023-05-07T12:30:10;101598.88;;;22.93;69.59
61119;BME280;51448;51.660;5.824;2023-05-07T12:32:38;101602.59;;;22.90;69.47
61119;BME280;51448;51.660;5.824;2023-05-07T12:35:06;101596.38;;;22.90;69.03
61119;BME280;51448;51.660;5.824;2023-05-07T12:37:35;101601.50;;;22.80;68.72
61119;BME280;51448;51.660;5.824;2023-05-07T12:40:08;101592.16;;;22.73;67.48
61119;BME280;51448;51.660;5.824;2023-05-07T12:42:39;101602.75;;;22.62;67.81
61119;BME280;51448;51.660;5.824;2023-05-07T12:45:12;101603.38;;;22.53;68.36
61119;BME280;51448;51.660;5.824;2023-05-07T12:47:47;101599.25;;;22.47;68.76
61119;BME280;51448;51.660;5.824;2023-05-07T12:50:15;101593.00;;;22.34;68.38
61119;BME280;51448;51.660;5.824;2023-05-07T12:52:45;101589.09;;;22.25;69.69
61119;BME280;51448;51.660;5.824;2023-05-07T12:55:16;101607.44;;;22.17;69.75
61119;BME280;51448;51.660;5.824;2023-05-07T12:57:47;101610.06;;;22.04;70.48
61119;BME280;51448;51.660;5.824;2023-05-07T13:00:16;101616.28;;;21.90;70.48
61119;BME280;51448;51.660;5.824;2023-05-07T13:02:45;101614.22;;;21.81;70.57
61119;BME280;51448;51.660;5.824;2023-05-07T13:05:13;101615.38;;;21.77;71.01
61119;BME280;51448;51.660;5.824;2023-05-07T13:07:52;101619.38;;;21.69;71.50
61119;BME280;51448;51.660;5.824;2023-05-07T13:10:24;101627.00;;;21.61;72.13
61119;BME280;51448;51.660;5.824;2023-05-07T13:12:52;101624.72;;;21.55;72.67
61119;BME280;51448;51.660;5.824;2023-05-07T13:15:20;101613.63;;;21.47;72.23
61119;BME280;51448;51.660;5.824;2023-05-07T13:17:49;101622.97;;;21.40;72.59
61119;BME280;51448;51.660;5.824;2023-05-07T13:20:17;101622.28;;;21.36;72.90
61119;BME280;51448;51.660;5.824;2023-05-07T13:22:45;101631.28;;;21.35;73.18
61119;BME280;51448;51.660;5.824;2023-05-07T13:25:12;101633.06;;;21.35;73.70